AirNav   Pilot Hours Calculator
 
 472 users online  

9MI9 Bronson Methodist Hospital Heliport
Kalamazoo, Michigan, USA

GOING TO KALAMAZOO?


FAA INFORMATION EFFECTIVE 07 NOVEMBER 2019

Location

FAA Identifier: 9MI9
Lat/Long: 42-17-13.1600N 085-34-50.0200W
42-17.219333N 085-34.833667W
42.2869889,-85.5805611
(estimated)
Elevation: 778 ft. / 237.1 m (surveyed)
Variation: 03W (1985)
From city: 4 miles E of KALAMAZOO, MI
Time zone: UTC -5 (UTC -4 during Daylight Saving Time)
Zip code: 49007

Heliport Operations

Heliport use: Private use, MEDICAL USE.
Activation date: 08/1985
Control tower: no
ARTCC: CHICAGO CENTER
FSS: LANSING FLIGHT SERVICE STATION
NOTAMs facility: FDC (NOTAM-D service not available)
Attendance: CONTINUOUS
Wind indicator: yes
Segmented circle: no
Beacon: white-green-yellow (heliport)
Operates sunset to sunrise.

Heliport Communications

WX ASOS at AZO (3 nm S): 127.25 (269-459-3391)
WX ASOS at BTL (15 nm E): PHONE 269-964-0283
WX AWOS-3 at HAI (20 nm S): 119.975 (269-273-6705)

Nearby radio navigation aids

VOR radial/distance  VOR name  Freq  Var
AZOr339/3.2KALAMAZOO VOR/DME109.0001W
ELXr070/25.6KEELER VOR/DME116.6000E
PMMr115/25.6PULLMAN VOR/DME112.1000E
VIOr191/30.2VICTORY VOR/DME115.9504W
LFDr295/38.7LITCHFIELD VOR/DME111.2005W

 
NDB name  Hdg/Dist  Freq  Var  ID
AUSTN349/9.637103WAZ .- --..
STURGIS351/29.238204WIRS .. .-. ...

Heliport Services

Fuel available: A

Runway Information

Helipad H1

Dimensions: 96 x 65 ft. / 29 x 20 m
Surface: concrete
Traffic pattern: leftleft
Visual slope indicator: 2-light PAPI on left

Heliport Ownership and Management from official FAA records

Ownership: Privately-owned
Owner: BRONSON HEALTH CARE GROUP
301 JOHN STREET
KALAMAZOO, MI 49007
Phone 269-341-6000
Manager: DAN KETTENBEIL
601 JOHN STREET
KALAMAZOO, MI 49007
Phone 269-341-7652

Heliport Operational Statistics

Aircraft based on the field: 2
Helicopters: 2
    

Additional Remarks

300' BLDG. LCTD 500 FT. W OF HELIPAD.
WIND SOCK LCTD 750 FT SW ON HOSPITAL ROOF.
FOR CD CTC GREAT LAKES APCH AT 269-459-3345, WHEN APCH CLSD CTC CHICAGO ARTCC AT 630-906-8921.

Instrument Procedures

There are no published instrument procedures at 9MI9.

Some nearby airports with instrument procedures:

KAZO - Kalamazoo/Battle Creek International Airport (3 nm S)
KBTL - W K Kellogg Airport (15 nm E)
35D - Padgham Field Airport (18 nm NW)
KHAI - Three Rivers Municipal Dr Haines Airport (20 nm S)
9D9 - Hastings Airport (25 nm NE)
 
Loc | Ops | Rwys | IFR | FBO | Links
Com | Nav | Svcs | Stats | Notes
Area around 9MI9 (Bronson Methodist Hospital Heliport)
 
Road maps at: MapQuest Bing Google
 
Aerial photo
No photo
 
Sectional chart

 
Airport distance calculator
Flying to Bronson Methodist Hospital Heliport? Find the distance to fly.

From to 9MI9

Sunrise and sunset
Times for 19-Nov-2019
 Local
(UTC-5)
 Zulu
(UTC)
Morning civil twilight07:0812:08
Sunrise07:3912:39
Sunset17:1722:17
Evening civil twilight17:4722:47

Current date and time
Zulu (UTC)  19-Nov-2019 08:21:01
Local (UTC-5)  19-Nov-2019 03:21:01
 
METAR
KAZO 
3nm SE 
190753Z AUTO 24005KT 3SM BR BKN005 OVC012 03/02 A2975 RMK AO2 SLP081 T00280017
KBTL 
16nm E 
190753Z AUTO 23005KT 1/2SM R23/2800V3500FT FG VV002 03/03 A2975 RMK AO2 SLP081 T00280028
KHAI 
20nm S 
190756Z AUTO 27004KT 4SM BR SCT006 OVC020 03/02 A2976 RMK AO2 T00300015
TAF
KAZO 
3nm SE 
190520Z 1906/2006 VRB03KT 1SM -DZ BR OVC004 FM190700 VRB03KT 2SM BR OVC004 FM191400 19005KT 3SM BR OVC009 FM191800 23006KT 5SM BR OVC015
KBTL 
16nm E 
190540Z 1906/2006 VRB03KT 2SM BR OVC004 TEMPO 1906/1907 1/4SM FG FM191400 19005KT 5SM BR OVC009 FM191800 23006KT 5SM BR OVC015
NOTAMs
Click for the latest NOTAMs
NOTAMs are issued by the DoD/FAA and will open in a separate window not controlled by AirNav.

 

 
 

Would you like to see your business listed on this page?

 If your business provides an interesting product or service to pilots, flight crews, aircraft, or users of the Bronson Methodist Hospital Heliport, you should consider listing it here.  To start the listing process, click on the button below
 
Add a business
 

Other Pages about Bronson Methodist Hospital Heliport

Update a link
 
Copyright © AirNav, LLC. All rights reserved. Privacy Policy  Contact